Decoded Metar for LFRD (DINARD in FRANCE) (IATA:DNR) | Meteo·Mobile Aviation Weather
aviador You're here:

LFRD Decoded Metar

DINARD in FRANCE
Report Time2018-10-20 17:00:00
UTC Time2018-10-20 17:06:43
Flight Rules vfr VFR
Wind030° at 05 kt
W.Decomp.*RWY 35: 3.7 kt HW 3.3 kt RCW
RWY 12: 0.2 kt HW 5 kt LCW
W.Rank030° ranks 19
Current wind is below 030° avg. (7.1)
Visibility9999 m
Phenomena:N/A
Clouds:N/A
Expected CloudBase > 2,000 ft AGL from Temp-Dew spread
CeilingNone
Temp14°C (ISA -1)
Dew Point09°C (72% RH)
AAT12.0°C
QNH1029 hPa
Density Alt-262 ft
Elevation194 ft
Report Wrong Elevation
Raw Report
METAR LFRD 201700Z AUTO 03005KT CAVOK 14/09 Q1029 NOSIG=

Extra information for LFRD:More info

Metar Taf Metar & Taf Last 4 Metars F.Rules Stats Wind Profile Meteogram Temp Stats Airport Information Weather charts Add Link Nearby VenuesMetar ALERT Operation Metar Decoded Social comments